Laconia, NH

12:23 AM EST on February 07, 2016 (GMT -0500)
KNHWEIRS3 | | Change Station
CLOSE
Current Station
Personal Weather Station
Location: Weirs Beach, NH
Elevation: 837 ft
Nearby Weather Stations

Elev 837 ft 43.55 °N, 71.43 °W | Updated 51 seconds ago

Clear
Clear
27.5 °F
Feels Like 21 °F
N
6.0
Wind Variable Wind from West
Gusts 12.0 mph

Today
High -- | Low -- °F
--% Chance of Precip.
Yesterday
High -- | Low -- °F
Precip. -- in
Pressure 30.13 in
Visibility 10.0 miles
Clouds Clear
Windchill 21 °F
Dew Point 21 °F
Humidity 76%
Rainfall 0.00 in
Snow Depth Not available.
6:55 AM 5:04 PM
Waning Crescent, 3% visible
METAR KLCI 070515Z AUTO 22009KT 10SM CLR M02/M08 A3013 RMK AO1
Pressure 30.13 in
Visibility 10.0 miles
Clouds Clear
Windchill 21 °F
Dew Point 21 °F
Humidity 76%
Rainfall 0.00 in
Snow Depth Not available.
6:55 AM 5:04 PM
Waning Crescent, 3% visible
METAR KLCI 070515Z AUTO 22009KT 10SM CLR M02/M08 A3013 RMK AO1

10-Day Weather Forecast

Almanac

Astronomy

Feb. 07, 2016 Rise Set
Actual Time
Civil Twilight
Nautical Twilight
Astronomical Twilight
Moon
Length of Visible Light
Length of Day
Tomorrow will be .
, % of the Moon is Illuminated

Today's Extremes

State Highs State Lows

Community

WunderPhotos

Upload Photos

1,891,163 photos uploaded!

WunderBlog® & News

Nearby

Air Quality

  Air Quality AQ Index Pollutant
Not available.

Snow Depth

Station Depth Elevation

Earthquake Activity

City Distance Mag. Time & Date
Minimum magnitude displayed is 2.5.

Coastal Water Temperatures

Place Temperature

Stations

Nearby Weather Stations

Station Location Temp. Windchill Dew Point Humidity Wind Precip. Elev Updated Type
                   

Watches & Warnings

There are currently no watches in effect.